createdAt,value
2024-04-24T00:00:32.151Z,12.75
2024-04-24T00:03:06.503Z,6.35
2024-04-24T00:05:35.912Z,10.73
2024-04-24T00:08:03.524Z,5.40
2024-04-24T00:10:30.506Z,8.75
2024-04-24T00:12:57.507Z,11.13
2024-04-24T00:15:24.503Z,9.57
2024-04-24T00:17:51.703Z,6.40
2024-04-24T00:20:18.779Z,9.48
2024-04-24T00:22:45.975Z,4.72
2024-04-24T00:25:13.050Z,6.07
2024-04-24T00:27:41.542Z,11.88
2024-04-24T00:30:14.099Z,7.25
2024-04-24T00:32:41.741Z,8.73
2024-04-24T00:35:08.801Z,8.15
2024-04-24T00:37:38.303Z,7.50
2024-04-24T00:40:13.449Z,6.10
2024-04-24T00:42:40.959Z,9.80
2024-04-24T00:45:08.092Z,5.13
2024-04-24T00:47:36.946Z,6.47
2024-04-24T00:50:07.420Z,7.95
2024-04-24T00:52:34.418Z,11.20
2024-04-24T00:55:01.497Z,8.38
2024-04-24T00:57:28.414Z,10.25
2024-04-24T00:59:55.367Z,9.43
2024-04-24T01:02:22.520Z,6.25
2024-04-24T01:04:49.560Z,10.70
2024-04-24T01:07:16.560Z,6.95
2024-04-24T01:09:45.924Z,6.20
2024-04-24T01:12:13.016Z,11.02
2024-04-24T01:14:40.069Z,9.88
2024-04-24T01:17:07.890Z,15.48
2024-04-24T01:19:49.720Z,13.38
2024-04-24T01:22:22.666Z,8.55
2024-04-24T01:25:00.521Z,6.93
2024-04-24T01:27:27.565Z,10.10
2024-04-24T01:29:54.501Z,9.15
2024-04-24T01:32:21.475Z,12.55
2024-04-24T01:34:48.491Z,8.52
2024-04-24T01:37:15.382Z,9.77
2024-04-24T01:39:42.335Z,9.43
2024-04-24T01:42:09.419Z,6.43
2024-04-24T01:44:36.392Z,11.35
2024-04-24T01:47:03.337Z,10.52
2024-04-24T01:49:30.253Z,7.85
2024-04-24T01:51:57.163Z,18.08
2024-04-24T01:54:25.148Z,10.43
2024-04-24T01:56:52.046Z,11.05
2024-04-24T01:59:19.040Z,16.40
2024-04-24T02:01:46.072Z,11.15
2024-04-24T02:04:13.033Z,9.60
2024-04-24T02:06:39.999Z,15.02
2024-04-24T02:09:06.934Z,12.45
2024-04-24T02:11:36.048Z,5.40
2024-04-24T02:14:03.283Z,11.68
2024-04-24T02:16:30.369Z,10.90
2024-04-24T02:18:57.533Z,7.07
2024-04-24T02:21:24.582Z,8.00
2024-04-24T02:23:54.010Z,11.52
2024-04-24T02:26:21.085Z,8.60
2024-04-24T02:28:48.114Z,8.65
2024-04-24T02:31:15.059Z,17.40
2024-04-24T02:33:42.495Z,8.65
2024-04-24T02:36:09.484Z,9.32
2024-04-24T02:38:36.474Z,7.70
2024-04-24T02:41:03.566Z,9.30
2024-04-24T02:43:30.516Z,13.10
2024-04-24T02:45:57.606Z,9.93
2024-04-24T02:48:24.698Z,10.73
2024-04-24T02:50:51.816Z,8.05
2024-04-24T02:53:18.959Z,9.55
2024-04-24T02:55:46.061Z,8.07
2024-04-24T02:58:13.183Z,9.90
2024-04-24T03:00:40.198Z,8.57
2024-04-24T03:03:07.309Z,8.65
2024-04-24T03:05:34.327Z,9.98
2024-04-24T03:08:02.195Z,17.92
2024-04-24T03:10:29.089Z,14.57
2024-04-24T03:12:56.040Z,9.02
2024-04-24T03:15:22.978Z,11.52
2024-04-24T03:17:50.036Z,8.93
2024-04-24T03:20:17.115Z,12.95
2024-04-24T03:22:44.103Z,9.48
2024-04-24T03:25:11.089Z,10.77
2024-04-24T03:27:38.002Z,12.38
2024-04-24T03:30:05.380Z,8.85
2024-04-24T03:32:32.564Z,6.38
2024-04-24T03:34:59.650Z,5.88
2024-04-24T03:37:26.700Z,9.57
2024-04-24T03:39:53.644Z,14.07
2024-04-24T03:42:20.544Z,11.20
2024-04-24T03:44:47.449Z,16.55
2024-04-24T03:47:14.549Z,8.80
2024-04-24T03:49:41.522Z,8.05
2024-04-24T03:52:08.442Z,12.30
2024-04-24T03:54:35.402Z,14.77
2024-04-24T03:57:02.448Z,11.63
2024-04-24T03:59:29.402Z,12.05
2024-04-24T04:01:56.444Z,13.10
2024-04-24T04:04:23.656Z,10.48
2024-04-24T04:06:50.596Z,9.30
2024-04-24T04:09:17.464Z,16.85
2024-04-24T04:11:44.503Z,13.63
2024-04-24T04:14:12.373Z,12.93
2024-04-24T04:16:39.507Z,16.92
2024-04-24T04:19:06.529Z,13.65
2024-04-24T04:21:33.455Z,9.30
2024-04-24T04:24:00.356Z,10.68
2024-04-24T04:26:27.340Z,10.10
2024-04-24T04:28:54.382Z,10.82
2024-04-24T04:31:21.464Z,6.80
2024-04-24T04:33:48.466Z,16.92
2024-04-24T04:36:15.467Z,9.73
2024-04-24T04:38:42.407Z,10.02
2024-04-24T04:41:09.341Z,15.93
2024-04-24T04:43:36.658Z,10.48
2024-04-24T04:46:03.704Z,15.38
2024-04-24T04:48:31.160Z,10.05
2024-04-24T04:51:00.719Z,9.88
2024-04-24T04:53:27.725Z,9.15
2024-04-24T04:55:54.898Z,13.57
2024-04-24T04:58:21.777Z,8.25
2024-04-24T05:00:48.797Z,7.55
2024-04-24T05:03:15.932Z,4.93
2024-04-24T05:05:42.906Z,8.18
2024-04-24T05:08:09.891Z,9.55
2024-04-24T05:10:36.783Z,7.63
2024-04-24T05:13:03.846Z,12.43
2024-04-24T05:15:30.912Z,10.05
2024-04-24T05:17:57.980Z,11.43
2024-04-24T05:20:25.103Z,9.05
2024-04-24T05:22:59.880Z,13.57
2024-04-24T05:25:29.323Z,13.75
2024-04-24T05:28:28.753Z,8.32
2024-04-24T05:30:56.694Z,11.55
2024-04-24T05:33:23.616Z,12.02
2024-04-24T05:35:50.610Z,12.50
2024-04-24T05:38:17.676Z,12.27
2024-04-24T05:40:44.702Z,18.85
2024-04-24T05:43:15.311Z,11.98
2024-04-24T05:45:43.726Z,16.73
2024-04-24T05:48:10.839Z,16.95
2024-04-24T05:50:37.801Z,12.35
2024-04-24T05:53:04.855Z,13.45
2024-04-24T05:55:34.271Z,16.95
2024-04-24T05:58:01.250Z,7.13
2024-04-24T06:00:28.208Z,9.60
2024-04-24T06:02:55.500Z,13.20
2024-04-24T06:05:22.494Z,16.52
2024-04-24T06:07:52.523Z,12.23
2024-04-24T06:10:19.427Z,12.05
2024-04-24T06:12:46.356Z,14.60
2024-04-24T06:15:13.351Z,10.85
2024-04-24T06:17:40.448Z,13.38
2024-04-24T06:20:08.550Z,11.73
2024-04-24T06:22:35.796Z,11.88
2024-04-24T06:25:02.695Z,21.20
2024-04-24T06:27:29.581Z,19.38
2024-04-24T06:29:58.366Z,11.02
2024-04-24T06:32:25.467Z,15.80
2024-04-24T06:34:52.827Z,12.30
2024-04-24T06:37:20.758Z,17.40
2024-04-24T06:39:48.394Z,16.60
2024-04-24T06:42:15.363Z,14.25
2024-04-24T06:44:42.381Z,19.77
2024-04-24T06:47:09.623Z,14.20
2024-04-24T06:49:36.699Z,10.13
2024-04-24T06:52:05.174Z,10.95
2024-04-24T06:54:34.567Z,18.55
2024-04-24T06:57:02.062Z,17.90
2024-04-24T06:59:29.240Z,12.10
2024-04-24T07:01:56.424Z,19.23
2024-04-24T07:04:23.547Z,19.90
2024-04-24T07:06:50.540Z,16.05
2024-04-24T07:09:17.868Z,17.33
2024-04-24T07:11:44.975Z,14.40
2024-04-24T07:14:12.058Z,10.15
2024-04-24T07:16:41.607Z,17.88
2024-04-24T07:19:09.161Z,28.80
2024-04-24T07:21:38.602Z,23.17
2024-04-24T07:24:05.822Z,13.32
2024-04-24T07:26:34.059Z,12.52
2024-04-24T07:29:01.106Z,15.60
2024-04-24T07:31:29.374Z,13.93
2024-04-24T07:33:56.375Z,14.50
2024-04-24T07:36:23.489Z,4.07
2024-04-24T07:38:50.433Z,8.02
2024-04-24T07:41:17.754Z,7.22
2024-04-24T07:43:44.840Z,2.90
2024-04-24T07:46:11.903Z,8.77
2024-04-24T07:48:38.990Z,5.40
2024-04-24T07:51:06.192Z,7.07
2024-04-24T07:53:36.093Z,7.97
2024-04-24T07:56:03.361Z,7.47
2024-04-24T07:58:34.299Z,6.63
2024-04-24T08:01:01.590Z,11.75
2024-04-24T08:03:28.696Z,5.30
2024-04-24T08:05:55.732Z,10.20
2024-04-24T08:08:22.655Z,8.43
2024-04-24T08:10:49.732Z,9.73
2024-04-24T08:13:17.249Z,10.50
2024-04-24T08:15:44.211Z,7.82
2024-04-24T08:18:11.435Z,12.00
2024-04-24T08:20:38.497Z,13.10
2024-04-24T08:23:05.633Z,7.95
2024-04-24T08:25:32.637Z,8.93
2024-04-24T08:28:00.216Z,11.50
2024-04-24T08:30:27.222Z,10.52
2024-04-24T08:32:55.366Z,8.73
2024-04-24T08:35:22.488Z,6.22
2024-04-24T09:10:59.671Z,3.28
2024-04-24T09:13:28.881Z,2.85
2024-04-24T09:16:00.451Z,5.40
2024-04-24T09:18:28.516Z,3.03
2024-04-24T09:20:57.222Z,4.82
2024-04-24T09:23:25.921Z,6.38
2024-04-24T09:25:53.126Z,3.85
2024-04-24T09:28:20.616Z,6.63
2024-04-24T09:30:51.895Z,3.53
2024-04-24T09:35:49.617Z,5.20
2024-04-24T09:38:19.969Z,2.58
2024-04-24T09:40:47.247Z,5.80
2024-04-24T09:43:16.998Z,5.80
2024-04-24T09:45:45.118Z,3.30
2024-04-24T09:48:20.656Z,3.92
2024-04-24T09:50:50.812Z,8.57
2024-04-24T09:53:18.957Z,9.25
2024-04-24T09:55:55.117Z,9.30
2024-04-24T09:58:25.302Z,4.18
2024-04-24T10:00:55.290Z,6.05
2024-04-24T10:03:26.917Z,6.18
2024-04-24T10:05:57.532Z,8.90
2024-04-24T10:08:31.638Z,7.20
2024-04-24T10:10:59.494Z,8.43
2024-04-24T10:13:30.578Z,8.80
2024-04-24T10:16:01.122Z,8.77
2024-04-24T10:18:28.570Z,13.93
2024-04-24T10:20:59.329Z,7.65
2024-04-24T10:23:28.924Z,5.68
2024-04-24T10:25:57.435Z,8.45
2024-04-24T10:28:28.701Z,6.00
2024-04-24T10:30:57.939Z,10.35
2024-04-24T10:33:25.922Z,12.45
2024-04-24T10:35:54.325Z,10.10
2024-04-24T10:38:21.583Z,11.63
2024-04-24T10:40:50.475Z,9.90
2024-04-24T10:43:17.871Z,5.70
2024-04-24T10:45:47.826Z,7.45
2024-04-24T10:48:15.050Z,11.52
2024-04-24T10:50:42.949Z,10.07
2024-04-24T10:53:15.961Z,12.95
2024-04-24T10:55:54.839Z,13.88
2024-04-24T10:58:22.835Z,7.47
2024-04-24T11:00:50.007Z,10.13
2024-04-24T11:03:18.705Z,9.02
2024-04-24T11:05:46.451Z,11.60
2024-04-24T11:08:20.958Z,7.07
2024-04-24T11:10:53.785Z,7.45
2024-04-24T11:13:20.998Z,6.53
2024-04-24T11:15:54.878Z,6.28
2024-04-24T11:18:29.540Z,11.73
2024-04-24T11:20:57.387Z,8.82
2024-04-24T11:23:24.383Z,8.18
2024-04-24T11:25:59.477Z,5.93
2024-04-24T11:28:28.334Z,12.38
2024-04-24T11:30:56.077Z,7.47
2024-04-24T11:33:24.280Z,12.18
2024-04-24T11:35:52.979Z,8.23
2024-04-24T11:38:20.636Z,4.30
2024-04-24T11:40:47.986Z,10.48
2024-04-24T11:43:15.841Z,13.93
2024-04-24T11:45:42.890Z,10.05
2024-04-24T11:48:12.869Z,11.65
2024-04-24T11:50:39.940Z,10.82
2024-04-24T11:53:09.727Z,11.35
2024-04-24T11:55:36.946Z,7.47
2024-04-24T11:58:13.491Z,6.00
2024-04-24T12:00:41.267Z,7.00
2024-04-24T12:03:09.408Z,4.93
2024-04-24T12:05:37.045Z,4.38
2024-04-24T12:08:04.766Z,4.45
2024-04-24T12:10:31.984Z,3.92
2024-04-24T12:12:59.262Z,2.63
2024-04-24T12:15:26.389Z,2.13
2024-04-24T12:17:53.508Z,2.97
2024-04-24T12:20:20.857Z,5.97
2024-04-24T12:22:47.894Z,4.93
2024-04-24T12:25:15.034Z,6.07
2024-04-24T12:27:42.135Z,1.80
2024-04-24T12:30:10.185Z,3.33
2024-04-24T12:32:38.036Z,6.80
2024-04-24T12:35:06.093Z,8.80
2024-04-24T12:37:35.503Z,5.90
2024-04-24T12:40:03.040Z,4.03
2024-04-24T12:42:30.110Z,3.45
2024-04-24T12:44:57.524Z,3.17
2024-04-24T12:47:24.935Z,6.25
2024-04-24T12:49:52.812Z,8.65
2024-04-24T12:52:20.197Z,2.80
2024-04-24T12:54:48.356Z,5.32
2024-04-24T12:57:16.732Z,4.22
2024-04-24T12:59:45.344Z,8.25
2024-04-24T13:02:13.059Z,5.03
2024-04-24T13:04:40.373Z,6.53
2024-04-24T13:07:08.327Z,6.10
2024-04-24T13:09:36.504Z,6.13
2024-04-24T13:12:05.021Z,5.55
2024-04-24T13:14:32.672Z,9.00
2024-04-24T13:17:01.550Z,10.40
2024-04-24T13:19:29.175Z,5.80
2024-04-24T13:21:56.203Z,5.70
2024-04-24T13:24:23.201Z,9.45
2024-04-24T13:26:50.123Z,5.53
2024-04-24T13:29:17.116Z,10.55
2024-04-24T13:31:44.414Z,9.75
2024-04-24T13:34:11.447Z,2.72
2024-04-24T13:36:38.414Z,3.30
2024-04-24T13:39:05.381Z,2.67
2024-04-24T13:41:36.473Z,5.78
2024-04-24T13:44:06.398Z,5.75
2024-04-24T13:46:34.394Z,4.53
2024-04-24T13:49:03.528Z,3.10
2024-04-24T13:51:30.851Z,4.18
2024-04-24T13:53:58.417Z,4.30
2024-04-24T13:56:25.462Z,3.85
2024-04-24T13:58:52.388Z,5.82
2024-04-24T14:01:19.340Z,5.57
2024-04-24T14:03:46.569Z,8.70
2024-04-24T14:06:13.857Z,4.15
2024-04-24T14:08:40.949Z,7.97
2024-04-24T14:11:12.819Z,3.92
2024-04-24T14:13:39.960Z,5.38
2024-04-24T14:16:10.784Z,5.68
2024-04-24T14:18:39.267Z,3.13
2024-04-24T14:21:07.642Z,4.18
2024-04-24T14:23:34.559Z,5.28
2024-04-24T14:26:01.958Z,6.45
2024-04-24T14:28:28.966Z,4.18
2024-04-24T14:30:55.953Z,8.93
2024-04-24T14:33:23.316Z,12.52
2024-04-24T14:35:50.331Z,6.63
2024-04-24T14:38:20.324Z,6.68
2024-04-24T14:40:47.408Z,2.50
2024-04-24T14:43:15.685Z,4.97
2024-04-24T14:45:42.740Z,3.67
2024-04-24T14:48:09.890Z,4.40
2024-04-24T14:50:38.453Z,4.93
2024-04-24T14:53:05.621Z,12.52
2024-04-24T14:55:33.369Z,6.15
2024-04-24T14:58:00.491Z,4.50
2024-04-24T15:00:28.884Z,5.53
2024-04-24T15:02:55.814Z,10.45
2024-04-24T15:05:22.898Z,8.35
2024-04-24T15:07:49.884Z,5.32
2024-04-24T15:10:18.915Z,11.30
2024-04-24T15:12:46.032Z,6.72
2024-04-24T15:15:13.093Z,6.78
2024-04-24T15:17:40.180Z,5.32
2024-04-24T15:20:07.921Z,2.97
2024-04-24T15:22:34.930Z,4.97
2024-04-24T15:25:02.469Z,2.60
2024-04-24T15:27:30.241Z,2.75
2024-04-24T15:29:57.203Z,4.47
2024-04-24T15:32:24.364Z,3.60
2024-04-24T15:34:51.954Z,3.60
2024-04-24T15:37:18.953Z,3.92
2024-04-24T15:39:46.230Z,6.88
2024-04-24T15:42:13.387Z,2.30
2024-04-24T15:44:40.318Z,6.97
2024-04-24T15:47:07.386Z,4.88
2024-04-24T15:49:34.324Z,4.40
2024-04-24T15:52:01.287Z,4.78
2024-04-24T15:54:28.231Z,6.28
2024-04-24T15:56:55.236Z,4.05
2024-04-24T15:59:22.237Z,6.00
2024-04-24T16:01:49.202Z,8.32
2024-04-24T16:04:16.181Z,6.25
2024-04-24T16:06:43.079Z,4.95
2024-04-24T16:09:10.120Z,4.10
2024-04-24T16:11:37.162Z,3.33
2024-04-24T16:14:04.139Z,3.20
2024-04-24T16:16:31.130Z,7.78
2024-04-24T16:18:58.419Z,4.78
2024-04-24T16:21:26.520Z,6.03
2024-04-24T16:23:53.386Z,2.50
2024-04-24T16:26:20.360Z,5.28
2024-04-24T16:28:48.412Z,3.53
2024-04-24T16:31:15.319Z,3.95
2024-04-24T16:33:42.452Z,3.35
2024-04-24T16:36:13.568Z,3.58
2024-04-24T16:38:41.226Z,3.47
2024-04-24T16:41:26.608Z,5.35
2024-04-24T16:43:54.293Z,3.13
2024-04-24T16:46:22.335Z,5.38
2024-04-24T16:48:52.390Z,4.97
2024-04-24T16:51:19.663Z,4.93
2024-04-24T16:53:47.603Z,3.88
2024-04-24T16:56:18.208Z,6.47
2024-04-24T16:58:51.655Z,6.80
2024-04-24T17:01:20.152Z,4.15
2024-04-24T17:03:47.193Z,5.57
2024-04-24T17:06:15.044Z,3.95
2024-04-24T17:08:43.560Z,4.70
2024-04-24T17:11:10.631Z,6.32
2024-04-24T17:13:39.115Z,3.72
2024-04-24T17:16:07.983Z,3.47
2024-04-24T17:18:35.228Z,6.68
2024-04-24T17:21:03.560Z,4.53
2024-04-24T17:23:30.800Z,4.07
2024-04-24T17:25:58.233Z,3.30
2024-04-24T17:28:25.347Z,4.88
2024-04-24T17:30:52.343Z,4.18
2024-04-24T17:33:21.102Z,4.53
2024-04-24T17:35:52.695Z,3.50
2024-04-24T17:38:19.890Z,2.45
2024-04-24T17:40:49.774Z,1.75
2024-04-24T17:43:16.776Z,3.88
2024-04-24T17:45:43.888Z,3.28
2024-04-24T17:48:11.037Z,4.18
2024-04-24T17:50:39.017Z,4.00
2024-04-24T17:53:06.790Z,3.92
2024-04-24T17:55:33.932Z,3.63
2024-04-24T17:58:04.488Z,4.88
2024-04-24T18:00:34.259Z,3.33
2024-04-24T18:03:01.719Z,4.55
2024-04-24T18:05:31.325Z,5.55
2024-04-24T18:07:58.427Z,7.05
2024-04-24T18:10:25.541Z,6.65
2024-04-24T18:12:52.499Z,5.88
2024-04-24T18:15:19.538Z,4.65
2024-04-24T18:17:50.423Z,5.18
2024-04-24T18:20:18.574Z,4.47
2024-04-24T18:22:47.178Z,5.78
2024-04-24T18:25:15.133Z,6.22
2024-04-24T18:27:44.813Z,4.50
2024-04-24T18:30:14.372Z,0.95
2024-04-24T18:32:41.587Z,2.53
2024-04-24T18:35:08.691Z,1.55
2024-04-24T18:37:39.505Z,5.35
2024-04-24T18:40:09.905Z,2.60
2024-04-24T18:42:38.498Z,7.22
2024-04-24T18:45:07.676Z,3.00
2024-04-24T18:47:54.789Z,4.00
2024-04-24T18:50:23.000Z,4.15
2024-04-24T18:52:52.318Z,5.35
2024-04-24T18:55:20.915Z,4.85
2024-04-24T18:57:48.914Z,2.20
2024-04-24T19:00:19.916Z,7.20
2024-04-24T19:02:51.104Z,7.30
2024-04-24T19:05:18.735Z,4.47
2024-04-24T19:07:50.022Z,4.55
2024-04-24T19:10:17.805Z,2.70
2024-04-24T19:12:44.978Z,6.28
2024-04-24T19:15:13.336Z,5.15
2024-04-24T19:17:47.475Z,4.43
2024-04-24T19:20:16.060Z,4.68
2024-04-24T19:22:43.140Z,5.55
2024-04-24T19:25:10.692Z,4.53
2024-04-24T19:27:41.521Z,3.45
2024-04-24T19:32:40.708Z,8.05
2024-04-24T19:35:09.399Z,4.72
2024-04-24T19:37:37.554Z,5.10
2024-04-24T19:40:06.586Z,2.92
2024-04-24T19:42:34.442Z,5.80
2024-04-24T19:45:03.605Z,11.43
2024-04-24T19:47:30.854Z,7.03
2024-04-24T19:49:57.934Z,5.85
2024-04-24T19:52:27.413Z,5.40
2024-04-24T19:54:54.639Z,3.78
2024-04-24T19:57:21.592Z,7.90
2024-04-24T19:59:49.706Z,5.03
2024-04-24T20:02:20.129Z,3.50
2024-04-24T20:07:15.858Z,5.97
2024-04-24T20:09:43.733Z,4.78
2024-04-24T20:12:10.867Z,7.15
2024-04-24T20:14:39.041Z,5.78
2024-04-24T20:17:08.307Z,5.03
2024-04-24T20:19:35.484Z,7.05
2024-04-24T20:22:02.776Z,8.88
2024-04-24T20:24:29.762Z,4.45
2024-04-24T20:26:56.819Z,5.50
2024-04-24T20:29:26.657Z,6.82
2024-04-24T20:31:55.119Z,8.07
2024-04-24T20:34:22.080Z,8.82
2024-04-24T20:36:49.142Z,8.48
2024-04-24T20:39:16.176Z,5.65
2024-04-24T20:41:44.048Z,3.45
2024-04-24T20:44:11.083Z,6.40
2024-04-24T20:46:42.856Z,2.88
2024-04-24T20:49:10.842Z,2.42
2024-04-24T20:51:42.550Z,4.80
2024-04-24T20:54:10.350Z,4.35
2024-04-24T20:56:37.880Z,5.28
2024-04-24T20:59:07.828Z,4.13
2024-04-24T21:01:34.990Z,2.85
2024-04-24T21:04:02.303Z,6.53
2024-04-24T21:06:29.407Z,3.45
2024-04-24T21:08:56.397Z,3.50
2024-04-24T21:11:26.854Z,6.55
2024-04-24T21:13:57.758Z,3.85
2024-04-24T21:16:25.756Z,6.38
2024-04-24T21:18:53.087Z,3.15
2024-04-24T21:21:21.178Z,5.05
2024-04-24T21:23:48.193Z,4.78
2024-04-24T21:26:16.962Z,2.90
2024-04-24T21:28:44.207Z,4.30
2024-04-24T21:31:11.414Z,7.82
2024-04-24T21:33:38.523Z,7.85
2024-04-24T21:36:05.842Z,5.18
2024-04-24T21:38:35.465Z,4.32
2024-04-24T21:41:20.992Z,3.70
2024-04-24T21:43:49.220Z,4.75
2024-04-24T21:46:16.754Z,1.80
2024-04-24T21:48:43.773Z,3.38
2024-04-24T21:51:11.497Z,4.72
2024-04-24T21:53:41.850Z,9.55
2024-04-24T21:56:08.911Z,6.88
2024-04-24T21:58:35.843Z,9.40
2024-04-24T22:01:02.946Z,9.98
2024-04-24T22:03:33.409Z,8.75
2024-04-24T22:06:03.804Z,9.90
2024-04-24T22:08:31.428Z,6.10
2024-04-24T22:10:59.012Z,6.32
2024-04-24T22:13:26.704Z,4.97
2024-04-24T22:15:53.794Z,8.25
2024-04-24T22:18:21.019Z,7.10
2024-04-24T22:20:48.267Z,9.90
2024-04-24T22:23:15.409Z,9.82
2024-04-24T22:25:42.509Z,7.00
2024-04-24T22:28:09.416Z,6.75
2024-04-24T22:30:36.375Z,5.85
2024-04-24T22:33:03.551Z,7.20
2024-04-24T22:35:30.572Z,10.18
2024-04-24T22:37:58.850Z,8.93
2024-04-24T22:40:26.032Z,10.45
2024-04-24T22:42:52.965Z,4.32
2024-04-24T22:45:20.014Z,7.65
2024-04-24T22:47:47.119Z,6.47
2024-04-24T22:50:14.311Z,6.88
2024-04-24T22:52:41.375Z,10.45
2024-04-24T22:55:08.359Z,8.02
2024-04-24T22:57:35.488Z,5.25
2024-04-24T23:00:04.396Z,7.90
2024-04-24T23:02:31.645Z,7.20
2024-04-24T23:04:58.669Z,9.32
2024-04-24T23:07:25.583Z,6.40
2024-04-24T23:09:52.752Z,5.68
2024-04-24T23:12:19.897Z,4.45
2024-04-24T23:14:46.895Z,7.63
2024-04-24T23:17:14.095Z,10.02
2024-04-24T23:19:41.140Z,7.60
2024-04-24T23:22:08.717Z,11.75
2024-04-24T23:24:35.750Z,8.98
2024-04-24T23:27:02.749Z,10.38
2024-04-24T23:29:30.134Z,12.38
2024-04-24T23:31:57.330Z,4.65
2024-04-24T23:34:24.268Z,10.55
2024-04-24T23:36:51.172Z,10.55
2024-04-24T23:39:18.138Z,7.63
2024-04-24T23:41:45.111Z,10.43
2024-04-24T23:44:12.107Z,11.65
2024-04-24T23:46:39.011Z,9.48
2024-04-24T23:49:06.261Z,14.27
2024-04-24T23:51:33.367Z,6.18
2024-04-24T23:54:00.289Z,6.45
2024-04-24T23:56:27.322Z,9.52
2024-04-24T23:58:54.233Z,9.18
